Time;durP1;ratioP1;P1;durP2;ratioP2;P2;SDS_P1;SDS_P2;PMS_P1;PMS_P2;Temp;Humidity;BMP_temperature;BMP_pressure;BME280_temperature;BME280_humidity;BME280_pressure;Samples;Min_cycle;Max_cycle;Signal;HPM_P1;HPM_P2
2022/02/13 00:06:41;;;;;;;;;58.50;46.00;;;;;;;;2;261076746;261076746;-75
2022/02/13 00:16:09;;;;;;;;;62.00;49.50;;;;;;;;2;288082624;288082624;-75
2022/02/13 00:24:24;;;;;;;;;43.00;37.00;;;;;;;;2;261075116;261075116;-75
2022/02/13 00:37:11;;;;;;;;;60.50;47.50;;;;;;;;2;288084527;288084527;-75
2022/02/13 00:45:27;;;;;;;;;43.00;37.50;;;;;;;;2;261075943;261075943;-75
2022/02/13 00:54:54;;;;;;;;;51.50;42.00;;;;;;;;2;288085628;288085628;-75
2022/02/13 01:03:10;;;;;;;;;55.50;46.00;;;;;;;;2;261075497;261075497;-75
2022/02/13 01:12:37;;;;;;;;;69.00;54.00;;;;;;;;2;288084269;288084269;-74
2022/02/13 01:20:53;;;;;;;;;65.00;52.50;;;;;;;;2;261075062;261075062;-74
2022/02/13 01:30:20;;;;;;;;;61.50;51.00;;;;;;;;2;288085715;288085715;-75
2022/02/13 01:38:36;;;;;;;;;60.50;50.00;;;;;;;;2;261077795;261077795;-75
2022/02/13 01:48:08;;;;;;;;;54.00;42.50;;;;;;;;2;288085460;288085460;-75
2022/02/13 01:56:23;;;;;;;;;84.00;68.50;;;;;;;;2;261076216;261076216;-75
2022/02/13 02:05:52;;;;;;;;;62.50;50.50;;;;;;;;2;288085272;288085272;-75
2022/02/13 02:14:07;;;;;;;;;57.00;48.00;;;;;;;;2;261076386;261076386;-75
2022/02/13 02:23:37;;;;;;;;;52.00;44.50;;;;;;;;2;288082939;288082939;-74
2022/02/13 02:31:53;;;;;;;;;53.00;43.50;;;;;;;;2;261075399;261075399;-75
2022/02/13 02:41:20;;;;;;;;;43.00;37.50;;;;;;;;2;288084379;288084379;-75
2022/02/13 02:49:36;;;;;;;;;44.00;38.50;;;;;;;;2;261077340;261077340;-75
2022/02/13 02:59:03;;;;;;;;;46.50;40.50;;;;;;;;2;288083542;288083542;-74
2022/02/13 03:07:19;;;;;;;;;46.50;39.00;;;;;;;;2;261078940;261078940;-75
2022/02/13 03:16:46;;;;;;;;;46.00;40.00;;;;;;;;2;288081956;288081956;-74
2022/02/13 03:25:03;;;;;;;;;36.50;29.50;;;;;;;;2;261075463;261075463;-75
2022/02/13 03:34:31;;;;;;;;;37.50;32.50;;;;;;;;2;288083107;288083107;-75
2022/02/13 03:42:46;;;;;;;;;53.00;44.00;;;;;;;;2;261077560;261077560;-75
2022/02/13 03:52:14;;;;;;;;;39.00;34.00;;;;;;;;2;288083652;288083652;-75
2022/02/13 04:00:29;;;;;;;;;53.00;45.00;;;;;;;;2;261076278;261076278;-75
2022/02/13 04:09:57;;;;;;;;;46.50;40.00;;;;;;;;2;288083177;288083177;-75
2022/02/13 04:18:12;;;;;;;;;52.50;44.50;;;;;;;;2;261076228;261076228;-75
2022/02/13 04:27:40;;;;;;;;;36.50;34.00;;;;;;;;2;288085326;288085326;-75
2022/02/13 04:35:55;;;;;;;;;44.50;38.50;;;;;;;;2;261079479;261079479;-75
2022/02/13 04:45:23;;;;;;;;;60.00;46.50;;;;;;;;2;288083635;288083635;-75
2022/02/13 04:53:38;;;;;;;;;50.00;41.50;;;;;;;;2;261077145;261077145;-75
2022/02/13 05:03:06;;;;;;;;;51.00;39.50;;;;;;;;2;288081875;288081875;-75
2022/02/13 05:11:21;;;;;;;;;43.00;37.50;;;;;;;;2;261077956;261077956;-75
2022/02/13 05:20:49;;;;;;;;;46.00;40.00;;;;;;;;2;288082023;288082023;-75
2022/02/13 05:29:04;;;;;;;;;46.00;38.50;;;;;;;;2;261077143;261077143;-75
2022/02/13 05:38:32;;;;;;;;;50.50;43.00;;;;;;;;2;288087500;288087500;-75
2022/02/13 05:46:47;;;;;;;;;60.50;50.00;;;;;;;;2;261076600;261076600;-74
2022/02/13 05:56:15;;;;;;;;;54.00;46.00;;;;;;;;2;288083894;288083894;-75
2022/02/13 06:04:30;;;;;;;;;65.00;51.00;;;;;;;;2;261075517;261075517;-75
2022/02/13 06:13:58;;;;;;;;;41.50;37.50;;;;;;;;2;288083600;288083600;-75
2022/02/13 06:22:13;;;;;;;;;46.00;40.00;;;;;;;;2;261076656;261076656;-74
2022/02/13 06:31:41;;;;;;;;;64.50;47.00;;;;;;;;2;288082744;288082744;-75
2022/02/13 06:39:57;;;;;;;;;49.00;35.00;;;;;;;;2;261075931;261075931;-75
2022/02/13 06:49:24;;;;;;;;;48.50;42.00;;;;;;;;2;288086242;288086242;-75
2022/02/13 06:57:44;;;;;;;;;28.50;28.00;;;;;;;;2;261077566;261077566;-75
2022/02/13 07:07:11;;;;;;;;;52.00;40.00;;;;;;;;2;288083725;288083725;-75
2022/02/13 07:15:27;;;;;;;;;45.00;37.50;;;;;;;;2;261077494;261077494;-75
2022/02/13 07:24:54;;;;;;;;;49.00;42.00;;;;;;;;2;288084291;288084291;-74
2022/02/13 07:33:10;;;;;;;;;53.50;45.50;;;;;;;;2;261080664;261080664;-74
2022/02/13 07:42:37;;;;;;;;;66.50;48.00;;;;;;;;2;288083709;288083709;-74
2022/02/13 07:50:53;;;;;;;;;44.50;38.50;;;;;;;;2;261077815;261077815;-75
2022/02/13 08:00:20;;;;;;;;;57.50;48.00;;;;;;;;2;288084357;288084357;-74
2022/02/13 08:08:36;;;;;;;;;42.50;38.00;;;;;;;;2;261076290;261076290;-74
2022/02/13 08:18:08;;;;;;;;;45.50;39.00;;;;;;;;2;288082616;288082616;-75
2022/02/13 08:26:23;;;;;;;;;31.00;30.00;;;;;;;;2;261075235;261075235;-76
2022/02/13 08:35:51;;;;;;;;;51.50;42.50;;;;;;;;2;288083616;288083616;-76
2022/02/13 08:44:06;;;;;;;;;57.00;47.00;;;;;;;;2;261075992;261075992;-76
2022/02/13 08:53:34;;;;;;;;;54.50;46.00;;;;;;;;2;288084776;288084776;-76
2022/02/13 09:01:49;;;;;;;;;40.00;35.50;;;;;;;;2;261077412;261077412;-76
2022/02/13 09:11:17;;;;;;;;;63.00;51.00;;;;;;;;2;288084511;288084511;-75
2022/02/13 09:19:32;;;;;;;;;56.50;47.00;;;;;;;;2;261077902;261077902;-75
2022/02/13 09:29:00;;;;;;;;;66.50;51.50;;;;;;;;2;288083488;288083488;-75
2022/02/13 09:37:15;;;;;;;;;54.50;45.00;;;;;;;;2;261078160;261078160;-76
2022/02/13 09:46:43;;;;;;;;;62.00;51.50;;;;;;;;2;288082790;288082790;-75
2022/02/13 09:54:59;;;;;;;;;84.00;77.50;;;;;;;;2;261079034;261079034;-75
2022/02/13 10:04:41;;;;;;;;;69.50;60.50;;;;;;;;2;288085142;288085142;-75
2022/02/13 10:12:56;;;;;;;;;56.50;47.50;;;;;;;;2;261075355;261075355;-75
2022/02/13 10:22:34;;;;;;;;;57.50;48.00;;;;;;;;2;288082997;288082997;-77
2022/02/13 10:30:52;;;;;;;;;98.50;98.50;;;;;;;;2;261074496;261074496;-76
2022/02/13 10:40:24;;;;;;;;;112.50;109.00;;;;;;;;2;288084163;288084163;-76
2022/02/13 10:48:39;;;;;;;;;72.50;65.50;;;;;;;;2;261077590;261077590;-76
2022/02/13 10:58:07;;;;;;;;;92.50;89.00;;;;;;;;2;288084501;288084501;-76
2022/02/13 11:06:23;;;;;;;;;95.00;95.00;;;;;;;;2;261074347;261074347;-76
2022/02/13 11:15:51;;;;;;;;;63.50;53.50;;;;;;;;2;288083780;288083780;-77
2022/02/13 11:24:07;;;;;;;;;51.50;44.00;;;;;;;;2;261076692;261076692;-76
2022/02/13 11:33:38;;;;;;;;;40.00;35.50;;;;;;;;2;288082962;288082962;-76
2022/02/13 11:41:54;;;;;;;;;39.00;33.50;;;;;;;;2;261075539;261075539;-77
2022/02/13 11:51:42;;;;;;;;;60.50;50.50;;;;;;;;2;288083559;288083559;-75
2022/02/13 11:59:57;;;;;;;;;55.00;46.50;;;;;;;;2;261077472;261077472;-75
2022/02/13 12:09:26;;;;;;;;;46.50;33.00;;;;;;;;2;288083702;288083702;-75
2022/02/13 12:17:42;;;;;;;;;64.00;53.00;;;;;;;;2;261080303;261080303;-75
2022/02/13 12:27:10;;;;;;;;;60.50;50.00;;;;;;;;2;288084310;288084310;-75
2022/02/13 12:35:26;;;;;;;;;65.00;52.00;;;;;;;;2;261077335;261077335;-76
2022/02/13 12:44:55;;;;;;;;;57.00;48.00;;;;;;;;2;288085884;288085884;-76
2022/02/13 12:53:11;;;;;;;;;65.50;54.50;;;;;;;;2;261078177;261078177;-76
2022/02/13 13:02:39;;;;;;;;;52.00;41.50;;;;;;;;2;288084372;288084372;-76
2022/02/13 13:10:55;;;;;;;;;60.50;50.50;;;;;;;;2;261078177;261078177;-76
2022/02/13 13:20:23;;;;;;;;;53.50;45.50;;;;;;;;2;288084850;288084850;-76
2022/02/13 13:28:40;;;;;;;;;64.00;54.50;;;;;;;;2;261076384;261076384;-75
2022/02/13 13:38:09;;;;;;;;;45.00;39.50;;;;;;;;2;288085062;288085062;-76
2022/02/13 13:46:26;;;;;;;;;46.00;38.50;;;;;;;;2;261075789;261075789;-76
2022/02/13 13:55:54;;;;;;;;;59.00;49.50;;;;;;;;2;288087638;288087638;-76
2022/02/13 14:04:10;;;;;;;;;55.50;46.50;;;;;;;;2;261078792;261078792;-76
2022/02/13 14:13:38;;;;;;;;;54.00;46.00;;;;;;;;2;288084955;288084955;-74
2022/02/13 14:21:54;;;;;;;;;80.00;78.00;;;;;;;;2;261074346;261074346;-74
2022/02/13 14:31:21;;;;;;;;;52.50;44.50;;;;;;;;2;288085064;288085064;-74
2022/02/13 14:39:37;;;;;;;;;76.00;72.00;;;;;;;;2;261074868;261074868;-76
2022/02/13 14:49:05;;;;;;;;;67.50;58.50;;;;;;;;2;288088348;288088348;-73
2022/02/13 14:57:20;;;;;;;;;75.50;72.00;;;;;;;;2;261072752;261072752;-76
2022/02/13 15:06:48;;;;;;;;;76.00;70.00;;;;;;;;2;288086653;288086653;-77
2022/02/13 15:15:03;;;;;;;;;60.00;48.50;;;;;;;;2;261075370;261075370;-75
2022/02/13 15:24:31;;;;;;;;;64.50;53.50;;;;;;;;2;288081745;288081745;-76
2022/02/13 15:32:46;;;;;;;;;62.50;53.00;;;;;;;;2;261076625;261076625;-75
2022/02/13 15:42:14;;;;;;;;;77.00;72.00;;;;;;;;2;288083393;288083393;-76
2022/02/13 15:50:29;;;;;;;;;71.00;62.50;;;;;;;;2;261078102;261078102;-73
2022/02/13 15:59:57;;;;;;;;;76.00;64.00;;;;;;;;2;288085673;288085673;-74
2022/02/13 16:08:12;;;;;;;;;65.50;55.50;;;;;;;;2;261078642;261078642;-73
2022/02/13 16:17:40;;;;;;;;;82.50;79.50;;;;;;;;2;288082022;288082022;-73
2022/02/13 16:25:55;;;;;;;;;51.00;43.50;;;;;;;;2;261075421;261075421;-73
2022/02/13 16:35:23;;;;;;;;;45.00;32.00;;;;;;;;2;288081895;288081895;-73
2022/02/13 16:43:39;;;;;;;;;61.00;51.00;;;;;;;;2;261075601;261075601;-73
2022/02/13 16:53:07;;;;;;;;;54.50;45.50;;;;;;;;2;288084151;288084151;-75
2022/02/13 17:01:23;;;;;;;;;65.50;55.00;;;;;;;;2;261076492;261076492;-74
2022/02/13 17:10:53;;;;;;;;;65.50;54.00;;;;;;;;2;288081704;288081704;-73
2022/02/13 17:19:09;;;;;;;;;64.00;56.50;;;;;;;;2;261078283;261078283;-73
2022/02/13 17:28:36;;;;;;;;;70.00;61.00;;;;;;;;2;288084496;288084496;-76
2022/02/13 17:36:53;;;;;;;;;67.00;59.50;;;;;;;;2;261077497;261077497;-76
2022/02/13 17:46:20;;;;;;;;;61.50;51.50;;;;;;;;2;288084128;288084128;-77
2022/02/13 17:54:36;;;;;;;;;61.00;50.50;;;;;;;;2;261075478;261075478;-77
2022/02/13 18:04:04;;;;;;;;;66.00;50.50;;;;;;;;2;288086723;288086723;-77
2022/02/13 18:12:19;;;;;;;;;70.00;62.00;;;;;;;;2;261075595;261075595;-77
2022/02/13 18:21:48;;;;;;;;;60.50;50.50;;;;;;;;2;288084249;288084249;-77
2022/02/13 18:30:04;;;;;;;;;67.00;59.00;;;;;;;;2;261077552;261077552;-77
2022/02/13 18:39:32;;;;;;;;;57.50;46.00;;;;;;;;2;288085724;288085724;-77
2022/02/13 18:47:47;;;;;;;;;76.50;70.00;;;;;;;;2;261075003;261075003;-77
2022/02/13 18:57:15;;;;;;;;;55.00;44.00;;;;;;;;2;288083916;288083916;-78
2022/02/13 19:05:30;;;;;;;;;50.50;38.50;;;;;;;;2;261077119;261077119;-78
2022/02/13 19:14:58;;;;;;;;;62.00;49.50;;;;;;;;2;288085730;288085730;-79
2022/02/13 19:23:13;;;;;;;;;72.50;66.00;;;;;;;;2;261078840;261078840;-78
2022/02/13 19:32:41;;;;;;;;;62.00;52.50;;;;;;;;2;288087028;288087028;-80
2022/02/13 19:40:56;;;;;;;;;71.00;60.50;;;;;;;;2;261078353;261078353;-80
2022/02/13 19:50:24;;;;;;;;;55.50;46.50;;;;;;;;2;288085697;288085697;-80
2022/02/13 19:58:40;;;;;;;;;73.00;63.00;;;;;;;;2;261076577;261076577;-79
2022/02/13 20:08:08;;;;;;;;;63.00;52.00;;;;;;;;2;288083376;288083376;-79
2022/02/13 20:16:23;;;;;;;;;69.50;61.00;;;;;;;;2;261078641;261078641;-77
2022/02/13 20:25:51;;;;;;;;;43.00;38.00;;;;;;;;2;288082987;288082987;-78
2022/02/13 20:34:06;;;;;;;;;57.50;48.00;;;;;;;;2;261075552;261075552;-79
2022/02/13 20:43:36;;;;;;;;;61.00;50.50;;;;;;;;2;288085722;288085722;-77
2022/02/13 20:51:52;;;;;;;;;48.50;42.00;;;;;;;;2;261077287;261077287;-77
2022/02/13 21:01:19;;;;;;;;;59.50;48.00;;;;;;;;2;288088632;288088632;-77
2022/02/13 21:09:34;;;;;;;;;56.00;47.00;;;;;;;;2;261077133;261077133;-79
2022/02/13 21:19:04;;;;;;;;;61.00;49.50;;;;;;;;2;288085653;288085653;-79
2022/02/13 21:27:19;;;;;;;;;;;;;;;;;;2;261075081;261075081;-79
2022/02/13 21:36:46;;;;;;;;;64.00;53.00;;;;;;;;2;288081120;288081120;-79
2022/02/13 21:45:02;;;;;;;;;77.50;62.00;;;;;;;;2;261077368;261077368;-79
2022/02/13 21:54:30;;;;;;;;;49.50;42.50;;;;;;;;2;288082052;288082052;-78
2022/02/13 22:02:46;;;;;;;;;58.50;49.00;;;;;;;;2;261080147;261080147;-77
2022/02/13 22:12:13;;;;;;;;;72.50;65.50;;;;;;;;2;288086028;288086028;-80
2022/02/13 22:20:29;;;;;;;;;52.00;44.00;;;;;;;;2;261079920;261079920;-80
2022/02/13 22:29:57;;;;;;;;;65.00;54.50;;;;;;;;2;288085472;288085472;-80
2022/02/13 22:38:12;;;;;;;;;62.50;52.00;;;;;;;;2;261079772;261079772;-82
2022/02/13 22:47:40;;;;;;;;;57.50;46.50;;;;;;;;2;288084123;288084123;-81
2022/02/13 22:55:56;;;;;;;;;58.50;48.50;;;;;;;;2;261074618;261074618;-81
2022/02/13 23:05:24;;;;;;;;;46.00;40.00;;;;;;;;2;288084878;288084878;-80
2022/02/13 23:13:39;;;;;;;;;45.50;39.50;;;;;;;;2;261076311;261076311;-81
2022/02/13 23:23:07;;;;;;;;;64.50;54.50;;;;;;;;2;288083210;288083210;-81
2022/02/13 23:31:23;;;;;;;;;56.50;43.50;;;;;;;;2;261077913;261077913;-81
2022/02/13 23:40:51;;;;;;;;;64.00;53.00;;;;;;;;2;288082723;288082723;-81
2022/02/13 23:49:06;;;;;;;;;57.50;48.00;;;;;;;;2;261077788;261077788;-80
2022/02/13 23:58:33;;;;;;;;;62.00;51.50;;;;;;;;2;288082035;288082035;-80
